createdAt,value
2017-12-01T00:02:37.000Z,0.67
2017-12-01T00:03:59.000Z,0.67
2017-12-01T00:05:27.000Z,0.67
2017-12-01T00:07:01.000Z,0.66
2017-12-01T00:08:46.000Z,0.66
2017-12-01T00:14:03.000Z,0.61
2017-12-01T00:15:00.000Z,0.62
2017-12-01T00:17:14.000Z,0.61
2017-12-01T00:21:48.000Z,0.64
2017-12-01T00:23:21.000Z,0.64
2017-12-01T00:25:02.000Z,0.64
2017-12-01T00:26:52.000Z,0.65
2017-12-01T00:30:01.000Z,0.62
2017-12-01T00:31:36.000Z,0.62
2017-12-01T00:33:15.000Z,0.61
2017-12-01T00:35:43.000Z,0.62
2017-12-01T00:36:47.000Z,0.63
2017-12-01T00:38:23.000Z,0.63
2017-12-01T00:39:43.000Z,0.63
2017-12-01T00:42:25.000Z,0.63
2017-12-01T00:44:13.000Z,0.63
2017-12-01T00:45:12.000Z,0.64
2017-12-01T00:48:45.000Z,0.64
2017-12-01T00:50:40.000Z,0.65
2017-12-01T00:54:07.000Z,0.67
2017-12-01T00:57:16.000Z,0.67
2017-12-01T00:58:29.000Z,0.67
2017-12-01T01:01:16.000Z,0.68
2017-12-01T01:02:20.000Z,0.68
2017-12-01T01:04:12.000Z,0.68
2017-12-01T01:06:38.000Z,0.68
2017-12-01T01:11:01.000Z,0.68
2017-12-01T01:12:13.000Z,0.68
2017-12-01T01:14:36.000Z,0.70
2017-12-01T01:15:14.000Z,0.66
2017-12-01T01:17:19.000Z,0.66
2017-12-01T01:18:06.000Z,0.64
2017-12-01T01:19:20.000Z,0.62
2017-12-01T01:21:29.000Z,0.61
2017-12-01T01:24:29.000Z,0.60
2017-12-01T01:26:28.000Z,0.60
2017-12-01T01:26:58.000Z,0.61
2017-12-01T01:29:10.000Z,0.61
2017-12-01T01:30:08.000Z,0.61
2017-12-01T01:33:42.000Z,0.62
2017-12-01T01:35:21.000Z,0.62
2017-12-01T01:36:17.000Z,0.64
2017-12-01T01:37:31.000Z,0.65
2017-12-01T01:39:03.000Z,0.63
2017-12-01T01:40:26.000Z,0.64
2017-12-01T01:42:10.000Z,0.64
2017-12-01T01:45:43.000Z,0.65
2017-12-01T01:48:09.000Z,0.66
2017-12-01T01:52:28.000Z,0.70
2017-12-01T01:55:34.000Z,0.70
2017-12-01T01:57:48.000Z,0.71
2017-12-01T01:59:28.000Z,0.72
2017-12-01T02:01:00.000Z,0.72
2017-12-01T02:03:36.000Z,0.72
2017-12-01T02:05:33.000Z,0.73
2017-12-01T02:06:41.000Z,0.73
2017-12-01T02:08:54.000Z,0.71
2017-12-01T02:14:14.000Z,0.70
2017-12-01T02:15:18.000Z,0.68
2017-12-01T02:18:14.000Z,0.64
2017-12-01T02:22:15.000Z,0.63
2017-12-01T02:23:18.000Z,0.63
2017-12-01T02:26:25.000Z,0.63
2017-12-01T02:28:11.000Z,0.63
2017-12-01T02:28:56.000Z,0.65
2017-12-01T02:32:07.000Z,0.67
2017-12-01T02:34:58.000Z,0.68
2017-12-01T02:36:23.000Z,0.68
2017-12-01T02:38:12.000Z,0.68
2017-12-01T02:39:33.000Z,0.68
2017-12-01T02:44:45.000Z,0.67
2017-12-01T02:46:04.000Z,0.67
2017-12-01T02:47:40.000Z,0.68
2017-12-01T02:48:57.000Z,0.68
2017-12-01T02:50:14.000Z,0.68
2017-12-01T02:51:09.000Z,0.69
2017-12-01T02:56:13.000Z,0.68
2017-12-01T02:59:26.000Z,0.71
2017-12-01T03:02:12.000Z,0.71
2017-12-01T03:03:38.000Z,0.71
2017-12-01T03:05:09.000Z,0.72
2017-12-01T03:08:09.000Z,0.73
2017-12-01T03:09:04.000Z,0.69
2017-12-01T03:10:33.000Z,0.69
2017-12-01T03:13:57.000Z,0.71
2017-12-01T03:15:34.000Z,0.70
2017-12-01T03:16:07.000Z,0.70
2017-12-01T03:18:33.000Z,0.68
2017-12-01T03:20:36.000Z,0.71
2017-12-01T03:22:03.000Z,0.72
2017-12-01T03:23:55.000Z,0.72
2017-12-01T03:25:08.000Z,0.72
2017-12-01T03:27:27.000Z,0.73
2017-12-01T03:29:07.000Z,0.73
2017-12-01T03:30:22.000Z,0.72
2017-12-01T03:32:34.000Z,0.72
2017-12-01T03:34:13.000Z,0.70
2017-12-01T03:35:44.000Z,0.70
2017-12-01T03:36:58.000Z,0.69
2017-12-01T03:38:17.000Z,0.70
2017-12-01T03:39:52.000Z,0.71
2017-12-01T03:41:43.000Z,0.69
2017-12-01T03:43:53.000Z,0.71
2017-12-01T03:46:30.000Z,0.69
2017-12-01T03:47:29.000Z,0.69
2017-12-01T03:51:17.000Z,0.70
2017-12-01T03:53:54.000Z,0.67
2017-12-01T03:55:37.000Z,0.65
2017-12-01T03:57:02.000Z,0.62
2017-12-01T03:58:33.000Z,0.60
2017-12-01T03:59:32.000Z,0.59
2017-12-01T04:01:14.000Z,0.57
2017-12-01T04:02:30.000Z,0.48
2017-12-01T04:04:02.000Z,0.42
2017-12-01T04:05:14.000Z,0.32
2017-12-01T04:07:26.000Z,0.30
2017-12-01T04:08:41.000Z,0.21
2017-12-01T04:10:29.000Z,0.14
2017-12-01T04:12:10.000Z,0.06
2017-12-01T04:13:29.000Z,0.03
2017-12-01T04:15:59.000Z,-0.07
2017-12-01T04:18:14.000Z,-0.16
2017-12-01T04:19:30.000Z,-0.20
2017-12-01T04:21:12.000Z,-0.28
2017-12-01T04:23:06.000Z,-0.32
2017-12-01T04:25:35.000Z,-0.35
2017-12-01T04:27:16.000Z,-0.33
2017-12-01T04:29:26.000Z,-0.43
2017-12-01T04:30:43.000Z,-0.42
2017-12-01T04:31:40.000Z,-0.44
2017-12-01T04:33:18.000Z,-0.45
2017-12-01T04:34:32.000Z,-0.45
2017-12-01T04:36:11.000Z,-0.41
2017-12-01T04:37:43.000Z,-0.31
2017-12-01T04:40:00.000Z,-0.27
2017-12-01T04:40:49.000Z,-0.20
2017-12-01T04:42:22.000Z,-0.19
2017-12-01T04:43:18.000Z,-0.13
2017-12-01T04:45:44.000Z,-0.08
2017-12-01T04:49:02.000Z,-0.05
2017-12-01T04:52:01.000Z,-0.05
2017-12-01T04:53:23.000Z,-0.07
2017-12-01T04:54:28.000Z,-0.10
2017-12-01T04:55:43.000Z,-0.13
2017-12-01T04:57:31.000Z,-0.15
2017-12-01T04:58:39.000Z,-0.19
2017-12-01T05:00:32.000Z,-0.21
2017-12-01T05:04:43.000Z,-0.15
2017-12-01T05:07:53.000Z,-0.15
2017-12-01T05:10:11.000Z,-0.18
2017-12-01T05:13:22.000Z,-0.23
2017-12-01T05:16:05.000Z,-0.28
2017-12-01T05:19:20.000Z,-0.35
2017-12-01T05:22:32.000Z,-0.37
2017-12-01T05:24:46.000Z,-0.37
2017-12-01T05:25:59.000Z,-0.39
2017-12-01T05:31:27.000Z,-0.48
2017-12-01T05:32:40.000Z,-0.54
2017-12-01T05:35:19.000Z,-0.57
2017-12-01T05:39:17.000Z,-0.61
2017-12-01T05:41:49.000Z,-0.66
2017-12-01T05:42:03.000Z,-0.65
2017-12-01T05:42:04.000Z,-0.67
2017-12-01T05:43:28.000Z,-0.66
2017-12-01T05:43:29.000Z,-0.66
2017-12-01T05:43:54.000Z,-0.66
2017-12-01T05:44:54.000Z,-0.66
2017-12-01T05:45:54.000Z,-0.67
2017-12-01T05:46:54.000Z,-0.66
2017-12-01T05:47:54.000Z,-0.65
2017-12-01T05:48:54.000Z,-0.63
2017-12-01T05:49:54.000Z,-0.62
2017-12-01T05:50:54.000Z,-0.63
2017-12-01T05:51:54.000Z,-0.62
2017-12-01T05:52:54.000Z,-0.61
2017-12-01T05:53:54.000Z,-0.60
2017-12-01T05:54:54.000Z,-0.58
2017-12-01T05:55:54.000Z,-0.59
2017-12-01T05:56:54.000Z,-0.62
2017-12-01T05:57:54.000Z,-0.62
2017-12-01T05:58:54.000Z,-0.64
2017-12-01T05:59:54.000Z,-0.64
2017-12-01T06:00:54.000Z,-0.65
2017-12-01T06:01:54.000Z,-0.66
2017-12-01T06:02:54.000Z,-0.64
2017-12-01T06:03:54.000Z,-0.60
2017-12-01T06:04:54.000Z,-0.58
2017-12-01T06:05:54.000Z,-0.59
2017-12-01T06:06:54.000Z,-0.57
2017-12-01T06:07:54.000Z,-0.56
2017-12-01T06:08:54.000Z,-0.58
2017-12-01T06:09:54.000Z,-0.54
2017-12-01T06:10:54.000Z,-0.54
2017-12-01T06:11:54.000Z,-0.56
2017-12-01T06:12:54.000Z,-0.60
2017-12-01T06:13:54.000Z,-0.63
2017-12-01T06:14:54.000Z,-0.67
2017-12-01T06:15:54.000Z,-0.72
2017-12-01T06:16:54.000Z,-0.76
2017-12-01T06:17:54.000Z,-0.82
2017-12-01T06:18:54.000Z,-0.86
2017-12-01T06:19:54.000Z,-0.87
2017-12-01T06:20:54.000Z,-0.90
2017-12-01T06:21:54.000Z,-0.92
2017-12-01T06:22:54.000Z,-0.93
2017-12-01T06:23:54.000Z,-0.97
2017-12-01T06:24:54.000Z,-1.01
2017-12-01T06:25:54.000Z,-1.04
2017-12-01T06:26:54.000Z,-1.11
2017-12-01T06:27:54.000Z,-1.14
2017-12-01T06:28:54.000Z,-1.17
2017-12-01T06:29:54.000Z,-1.15
2017-12-01T06:30:54.000Z,-1.16
2017-12-01T06:31:54.000Z,-1.17
2017-12-01T06:32:54.000Z,-1.19
2017-12-01T06:33:54.000Z,-1.21
2017-12-01T06:34:54.000Z,-1.24
2017-12-01T06:35:54.000Z,-1.25
2017-12-01T06:36:54.000Z,-1.28
2017-12-01T06:37:54.000Z,-1.29
2017-12-01T06:38:54.000Z,-1.32
2017-12-01T06:39:54.000Z,-1.33
2017-12-01T06:40:54.000Z,-1.33
2017-12-01T06:41:54.000Z,-1.33
2017-12-01T06:42:54.000Z,-1.32
2017-12-01T06:43:54.000Z,-1.25
2017-12-01T06:44:54.000Z,-1.20
2017-12-01T06:45:54.000Z,-1.19
2017-12-01T06:46:54.000Z,-1.22
2017-12-01T06:47:54.000Z,-1.27
2017-12-01T06:48:54.000Z,-1.31
2017-12-01T06:49:54.000Z,-1.32
2017-12-01T06:50:54.000Z,-1.33
2017-12-01T06:51:54.000Z,-1.34
2017-12-01T06:52:54.000Z,-1.33
2017-12-01T06:53:54.000Z,-1.32
2017-12-01T06:54:54.000Z,-1.27
2017-12-01T06:55:54.000Z,-1.27
2017-12-01T06:56:54.000Z,-1.28
2017-12-01T06:57:54.000Z,-1.28
2017-12-01T06:58:54.000Z,-1.29
2017-12-01T06:59:54.000Z,-1.27
2017-12-01T07:00:54.000Z,-1.27
2017-12-01T07:35:00.000Z,-0.92
2017-12-01T07:35:54.000Z,-0.91
2017-12-01T07:36:54.000Z,-0.91
2017-12-01T07:37:54.000Z,-0.89
2017-12-01T07:38:54.000Z,-0.89
2017-12-01T07:39:54.000Z,-0.89
2017-12-01T07:40:54.000Z,-0.90
2017-12-01T07:41:54.000Z,-0.88
2017-12-01T07:42:54.000Z,-0.85
2017-12-01T07:43:54.000Z,-0.82
2017-12-01T07:44:54.000Z,-0.77
2017-12-01T07:45:54.000Z,-0.76
2017-12-01T07:46:54.000Z,-0.72
2017-12-01T07:47:54.000Z,-0.73
2017-12-01T07:48:54.000Z,-0.79
2017-12-01T07:49:54.000Z,-0.83
2017-12-01T07:50:54.000Z,-0.86
2017-12-01T07:51:54.000Z,-0.86
2017-12-01T07:52:54.000Z,-0.84
2017-12-01T07:53:54.000Z,-0.85
2017-12-01T07:54:54.000Z,-0.82
2017-12-01T07:55:54.000Z,-0.78
2017-12-01T07:56:54.000Z,-0.73
2017-12-01T07:57:54.000Z,-0.65
2017-12-01T07:58:54.000Z,-0.53
2017-12-01T07:59:54.000Z,-0.36
2017-12-01T08:00:54.000Z,-0.23
2017-12-01T08:01:54.000Z,-0.17
2017-12-01T08:02:54.000Z,-0.11
2017-12-01T08:03:54.000Z,-0.06
2017-12-01T08:04:54.000Z,0.02
2017-12-01T08:05:54.000Z,0.15
2017-12-01T08:06:54.000Z,0.31
2017-12-01T08:07:54.000Z,0.44
2017-12-01T08:08:54.000Z,0.53
2017-12-01T08:09:54.000Z,0.58
2017-12-01T08:10:54.000Z,0.54
2017-12-01T08:11:54.000Z,0.55
2017-12-01T08:12:54.000Z,0.56
2017-12-01T08:13:54.000Z,0.60
2017-12-01T08:14:54.000Z,0.60
2017-12-01T08:15:54.000Z,0.57
2017-12-01T08:16:54.000Z,0.53
2017-12-01T08:17:54.000Z,0.45
2017-12-01T08:18:54.000Z,0.45
2017-12-01T08:19:54.000Z,0.39
2017-12-01T08:20:54.000Z,0.28
2017-12-01T08:21:54.000Z,0.24
2017-12-01T08:22:54.000Z,0.19
2017-12-01T08:23:54.000Z,0.18
2017-12-01T08:24:54.000Z,0.13
2017-12-01T08:25:54.000Z,0.14
2017-12-01T08:26:54.000Z,0.19
2017-12-01T08:27:54.000Z,0.24
2017-12-01T08:28:54.000Z,0.26
2017-12-01T08:29:54.000Z,0.20
2017-12-01T08:30:54.000Z,0.20
2017-12-01T08:31:54.000Z,0.21
2017-12-01T08:32:54.000Z,0.25
2017-12-01T08:33:54.000Z,0.25
2017-12-01T08:34:54.000Z,0.20
2017-12-01T08:35:54.000Z,0.23
2017-12-01T08:36:54.000Z,0.23
2017-12-01T08:37:54.000Z,0.27
2017-12-01T08:38:54.000Z,0.32
2017-12-01T08:39:54.000Z,0.36
2017-12-01T08:40:54.000Z,0.40
2017-12-01T08:41:54.000Z,0.44
2017-12-01T08:42:54.000Z,0.46
2017-12-01T08:43:54.000Z,0.44
2017-12-01T08:44:54.000Z,0.46
2017-12-01T08:45:54.000Z,0.49
2017-12-01T08:46:54.000Z,0.46
2017-12-01T08:47:54.000Z,0.45
2017-12-01T08:48:55.000Z,0.47
2017-12-01T08:49:54.000Z,0.48
2017-12-01T08:50:54.000Z,0.49
2017-12-01T08:51:54.000Z,0.49
2017-12-01T08:52:54.000Z,0.53
2017-12-01T08:53:54.000Z,0.54
2017-12-01T08:54:54.000Z,0.56
2017-12-01T08:55:54.000Z,0.55
2017-12-01T08:56:54.000Z,0.57
2017-12-01T08:57:54.000Z,0.58
2017-12-01T08:58:54.000Z,0.59
2017-12-01T08:59:54.000Z,0.63
2017-12-01T09:00:54.000Z,0.66
2017-12-01T09:01:54.000Z,0.69
2017-12-01T09:02:54.000Z,0.72
2017-12-01T09:03:54.000Z,0.75
2017-12-01T09:04:54.000Z,0.78
2017-12-01T09:05:54.000Z,0.79
2017-12-01T09:06:54.000Z,0.79
2017-12-01T09:07:54.000Z,0.79
2017-12-01T09:08:54.000Z,0.78
2017-12-01T09:09:54.000Z,0.78
2017-12-01T09:10:54.000Z,0.80
2017-12-01T09:11:54.000Z,0.82
2017-12-01T09:12:54.000Z,0.82
2017-12-01T09:13:54.000Z,0.84
2017-12-01T09:14:54.000Z,0.86
2017-12-01T09:15:54.000Z,0.87
2017-12-01T09:16:54.000Z,0.85
2017-12-01T09:17:54.000Z,0.83
2017-12-01T09:18:54.000Z,0.81
2017-12-01T09:19:54.000Z,0.82
2017-12-01T09:20:54.000Z,0.84
2017-12-01T09:21:54.000Z,0.84
2017-12-01T09:23:00.000Z,0.82
2017-12-01T09:23:54.000Z,0.79
2017-12-01T09:24:54.000Z,0.79
2017-12-01T09:25:54.000Z,0.81
2017-12-01T09:26:54.000Z,0.83
2017-12-01T09:27:54.000Z,0.87
2017-12-01T09:28:54.000Z,0.90
2017-12-01T09:29:54.000Z,0.91
2017-12-01T09:30:54.000Z,0.94
2017-12-01T09:31:54.000Z,0.96
2017-12-01T09:32:54.000Z,1.00
2017-12-01T09:33:54.000Z,1.02
2017-12-01T09:34:54.000Z,0.97
2017-12-01T09:35:54.000Z,0.97
2017-12-01T09:36:54.000Z,0.98
2017-12-01T09:37:54.000Z,1.00
2017-12-01T09:38:54.000Z,1.02
2017-12-01T09:39:54.000Z,1.05
2017-12-01T09:40:54.000Z,1.05
2017-12-01T09:41:54.000Z,1.04
2017-12-01T09:42:54.000Z,1.03
2017-12-01T09:43:54.000Z,1.05
2017-12-01T09:44:54.000Z,1.06
2017-12-01T09:45:54.000Z,1.08
2017-12-01T09:46:54.000Z,1.13
2017-12-01T09:47:54.000Z,1.15
2017-12-01T09:48:54.000Z,1.15
2017-12-01T09:49:54.000Z,1.14
2017-12-01T09:50:54.000Z,1.15
2017-12-01T09:51:54.000Z,1.17
2017-12-01T09:52:54.000Z,1.17
2017-12-01T09:53:54.000Z,1.17
2017-12-01T09:54:54.000Z,1.18
2017-12-01T09:55:54.000Z,1.20
2017-12-01T09:56:54.000Z,1.20
2017-12-01T09:57:54.000Z,1.22
2017-12-01T09:58:54.000Z,1.20
2017-12-01T09:59:54.000Z,1.20
2017-12-01T10:00:54.000Z,1.17
2017-12-01T10:01:54.000Z,1.19
2017-12-01T10:02:54.000Z,1.19
2017-12-01T10:03:54.000Z,1.19
2017-12-01T10:04:54.000Z,1.21
2017-12-01T10:05:54.000Z,1.23
2017-12-01T10:06:54.000Z,1.26
2017-12-01T10:07:54.000Z,1.30
2017-12-01T10:08:54.000Z,1.31
2017-12-01T10:09:54.000Z,1.32
2017-12-01T10:10:54.000Z,1.34
2017-12-01T10:11:54.000Z,1.36
2017-12-01T10:12:54.000Z,1.40
2017-12-01T10:13:54.000Z,1.42
2017-12-01T10:14:54.000Z,1.47
2017-12-01T10:15:54.000Z,1.49
2017-12-01T10:16:55.000Z,1.53
2017-12-01T10:17:54.000Z,1.54
2017-12-01T10:18:54.000Z,1.57
2017-12-01T10:19:54.000Z,1.60
2017-12-01T10:20:55.000Z,1.65
2017-12-01T10:21:54.000Z,1.69
2017-12-01T10:22:55.000Z,1.71
2017-12-01T10:23:55.000Z,1.72
2017-12-01T10:24:55.000Z,1.73
2017-12-01T10:25:55.000Z,1.73
2017-12-01T10:26:55.000Z,1.75
2017-12-01T10:27:55.000Z,1.77
2017-12-01T10:28:55.000Z,1.79
2017-12-01T10:29:55.000Z,1.77
2017-12-01T10:30:55.000Z,1.78
2017-12-01T10:31:55.000Z,1.79
2017-12-01T10:32:55.000Z,1.79
2017-12-01T10:33:55.000Z,1.78
2017-12-01T10:34:55.000Z,1.79
2017-12-01T10:35:55.000Z,1.83
2017-12-01T10:36:55.000Z,1.81
2017-12-01T10:37:55.000Z,1.80
2017-12-01T10:38:55.000Z,1.83
2017-12-01T10:39:55.000Z,1.85
2017-12-01T10:40:55.000Z,1.88
2017-12-01T10:41:55.000Z,1.90
2017-12-01T10:42:55.000Z,1.92
2017-12-01T10:43:55.000Z,1.94
2017-12-01T10:44:55.000Z,1.95
2017-12-01T10:45:55.000Z,1.97
2017-12-01T10:46:55.000Z,1.96
2017-12-01T10:47:55.000Z,1.93
2017-12-01T10:48:55.000Z,1.96
2017-12-01T10:49:55.000Z,1.95
2017-12-01T10:50:55.000Z,1.96
2017-12-01T10:51:55.000Z,1.95
2017-12-01T10:52:55.000Z,1.93
2017-12-01T10:53:55.000Z,1.85
2017-12-01T10:54:55.000Z,1.89
2017-12-01T10:55:55.000Z,1.91
2017-12-01T10:56:55.000Z,1.92
2017-12-01T10:57:55.000Z,1.95
2017-12-01T10:58:55.000Z,1.96
2017-12-01T10:59:55.000Z,2.01
2017-12-01T11:00:55.000Z,2.05
2017-12-01T11:01:55.000Z,2.08
2017-12-01T11:02:55.000Z,2.13
2017-12-01T11:03:55.000Z,2.17
2017-12-01T11:04:55.000Z,2.23
2017-12-01T11:05:55.000Z,2.28
2017-12-01T11:06:55.000Z,2.30
2017-12-01T11:07:55.000Z,2.34
2017-12-01T11:08:55.000Z,2.37
2017-12-01T11:09:55.000Z,2.38
2017-12-01T11:10:55.000Z,2.38
2017-12-01T11:11:55.000Z,2.37
2017-12-01T11:12:55.000Z,2.39
2017-12-01T11:13:55.000Z,2.42
2017-12-01T11:14:55.000Z,2.46
2017-12-01T11:15:55.000Z,2.46
2017-12-01T11:16:55.000Z,2.44
2017-12-01T11:18:08.000Z,2.44
2017-12-01T11:18:15.000Z,2.44
2017-12-01T11:18:55.000Z,2.43
2017-12-01T11:19:55.000Z,2.42
2017-12-01T11:20:55.000Z,2.45
2017-12-01T11:21:55.000Z,2.48
2017-12-01T11:22:55.000Z,2.53
2017-12-01T11:23:55.000Z,2.54
2017-12-01T11:24:55.000Z,2.60
2017-12-01T11:25:55.000Z,2.62
2017-12-01T11:26:55.000Z,2.63
2017-12-01T11:27:55.000Z,2.60
2017-12-01T11:28:55.000Z,2.58
2017-12-01T11:29:55.000Z,2.55
2017-12-01T11:30:55.000Z,2.57
2017-12-01T11:31:55.000Z,2.60
2017-12-01T11:32:55.000Z,2.62
2017-12-01T11:33:55.000Z,2.63
2017-12-01T11:34:55.000Z,2.62
2017-12-01T11:35:55.000Z,2.64
2017-12-01T11:36:55.000Z,2.65
2017-12-01T11:37:55.000Z,2.61
2017-12-01T11:38:55.000Z,2.59
2017-12-01T11:39:55.000Z,2.61
2017-12-01T11:40:55.000Z,2.65
2017-12-01T11:41:55.000Z,2.65
2017-12-01T11:42:55.000Z,2.60
2017-12-01T11:43:55.000Z,2.53
2017-12-01T11:44:55.000Z,2.48
2017-12-01T11:45:55.000Z,2.41
2017-12-01T11:46:55.000Z,2.39
2017-12-01T11:47:55.000Z,2.35
2017-12-01T11:48:55.000Z,2.37
2017-12-01T11:49:55.000Z,2.37
2017-12-01T11:50:55.000Z,2.36
2017-12-01T11:51:55.000Z,2.39
2017-12-01T11:52:55.000Z,2.39
2017-12-01T11:53:55.000Z,2.43
2017-12-01T11:54:55.000Z,2.45
2017-12-01T11:55:55.000Z,2.49
2017-12-01T11:56:55.000Z,2.47
2017-12-01T11:57:55.000Z,2.47
2017-12-01T11:58:55.000Z,2.47
2017-12-01T11:59:55.000Z,2.47
2017-12-01T12:00:55.000Z,2.49
2017-12-01T12:01:55.000Z,2.47
2017-12-01T12:02:55.000Z,2.40
2017-12-01T12:03:55.000Z,2.36
2017-12-01T12:04:55.000Z,2.39
2017-12-01T12:05:55.000Z,2.40
2017-12-01T12:06:55.000Z,2.39
2017-12-01T12:07:55.000Z,2.38
2017-12-01T12:08:55.000Z,2.40
2017-12-01T12:09:55.000Z,2.41
2017-12-01T12:10:55.000Z,2.41
2017-12-01T12:11:55.000Z,2.44
2017-12-01T12:12:55.000Z,2.45
2017-12-01T12:13:55.000Z,2.45
2017-12-01T12:14:55.000Z,2.47
2017-12-01T12:15:55.000Z,2.50
2017-12-01T12:16:55.000Z,2.41
2017-12-01T12:17:55.000Z,2.37
2017-12-01T12:18:55.000Z,2.37
2017-12-01T12:19:55.000Z,2.39
2017-12-01T12:20:55.000Z,2.36
2017-12-01T12:21:55.000Z,2.32
2017-12-01T12:22:55.000Z,2.33
2017-12-01T12:23:55.000Z,2.32
2017-12-01T12:24:55.000Z,2.30
2017-12-01T12:25:55.000Z,2.32
2017-12-01T12:26:55.000Z,2.34
2017-12-01T12:27:55.000Z,2.33
2017-12-01T12:28:55.000Z,2.36
2017-12-01T12:29:55.000Z,2.36
2017-12-01T12:30:55.000Z,2.36
2017-12-01T12:31:55.000Z,2.36
2017-12-01T12:32:55.000Z,2.36
2017-12-01T12:33:55.000Z,2.35
2017-12-01T12:34:55.000Z,2.35
2017-12-01T12:35:55.000Z,2.37
2017-12-01T12:36:55.000Z,2.37
2017-12-01T12:37:55.000Z,2.37
2017-12-01T12:38:55.000Z,2.37
2017-12-01T12:39:55.000Z,2.40
2017-12-01T12:40:55.000Z,2.40
2017-12-01T12:41:55.000Z,2.39
2017-12-01T12:42:55.000Z,2.41
2017-12-01T12:43:55.000Z,2.41
2017-12-01T12:44:55.000Z,2.43
2017-12-01T12:45:55.000Z,2.44
2017-12-01T12:46:55.000Z,2.45
2017-12-01T12:47:55.000Z,2.44
2017-12-01T12:48:55.000Z,2.45
2017-12-01T12:49:55.000Z,2.46
2017-12-01T12:50:55.000Z,2.44
2017-12-01T12:51:55.000Z,2.42
2017-12-01T12:52:55.000Z,2.43
2017-12-01T12:53:55.000Z,2.41
2017-12-01T12:54:55.000Z,2.40
2017-12-01T12:55:55.000Z,2.40
2017-12-01T12:56:55.000Z,2.39
2017-12-01T12:57:55.000Z,2.38
2017-12-01T12:58:55.000Z,2.39
2017-12-01T12:59:55.000Z,2.39
2017-12-01T13:00:55.000Z,2.41
2017-12-01T13:01:55.000Z,2.40
2017-12-01T13:02:55.000Z,2.40
2017-12-01T13:03:55.000Z,2.40
2017-12-01T13:04:55.000Z,2.40
2017-12-01T13:05:55.000Z,2.40
2017-12-01T13:06:55.000Z,2.39
2017-12-01T13:07:55.000Z,2.39
2017-12-01T13:08:55.000Z,2.36
2017-12-01T13:09:55.000Z,2.36
2017-12-01T13:10:55.000Z,2.33
2017-12-01T13:11:55.000Z,2.34
2017-12-01T13:12:55.000Z,2.34
2017-12-01T13:13:55.000Z,2.36
2017-12-01T13:14:55.000Z,2.36
2017-12-01T13:15:55.000Z,2.35
2017-12-01T13:16:55.000Z,2.35
2017-12-01T13:17:55.000Z,2.34
2017-12-01T13:18:55.000Z,2.34
2017-12-01T13:19:55.000Z,2.33
2017-12-01T13:20:55.000Z,2.32
2017-12-01T13:21:55.000Z,2.32
2017-12-01T13:22:55.000Z,2.32
2017-12-01T13:23:55.000Z,2.32
2017-12-01T13:24:55.000Z,2.31
2017-12-01T13:25:55.000Z,2.31
2017-12-01T13:26:55.000Z,2.31
2017-12-01T13:27:55.000Z,2.34
2017-12-01T13:28:55.000Z,2.34
2017-12-01T13:29:55.000Z,2.35
2017-12-01T13:30:55.000Z,2.35
2017-12-01T13:31:55.000Z,2.36
2017-12-01T13:32:55.000Z,2.36
2017-12-01T13:33:55.000Z,2.37
2017-12-01T13:34:55.000Z,2.35
2017-12-01T13:35:55.000Z,2.34
2017-12-01T13:36:55.000Z,2.32
2017-12-01T13:37:55.000Z,2.31
2017-12-01T13:38:55.000Z,2.29
2017-12-01T13:39:55.000Z,2.28
2017-12-01T13:40:55.000Z,2.24
2017-12-01T13:41:55.000Z,2.24
2017-12-01T13:42:55.000Z,2.23
2017-12-01T13:43:55.000Z,2.19
2017-12-01T13:44:55.000Z,2.17
2017-12-01T13:45:55.000Z,2.15
2017-12-01T13:46:55.000Z,2.12
2017-12-01T13:47:55.000Z,2.10
2017-12-01T13:48:55.000Z,2.08
2017-12-01T13:49:55.000Z,2.04
2017-12-01T13:50:55.000Z,2.02
2017-12-01T13:51:55.000Z,2.01
2017-12-01T13:52:55.000Z,1.99
2017-12-01T13:53:55.000Z,1.94
2017-12-01T13:54:55.000Z,1.91
2017-12-01T13:55:55.000Z,1.89
2017-12-01T13:56:55.000Z,1.88
2017-12-01T13:57:55.000Z,1.89
2017-12-01T13:58:57.000Z,1.92
2017-12-01T13:59:55.000Z,1.92
2017-12-01T14:00:55.000Z,1.93
2017-12-01T14:01:55.000Z,1.93
2017-12-01T14:02:55.000Z,1.95
2017-12-01T14:03:55.000Z,1.94
2017-12-01T14:04:55.000Z,1.95
2017-12-01T14:05:55.000Z,1.96
2017-12-01T14:06:55.000Z,1.95
2017-12-01T14:07:55.000Z,1.94
2017-12-01T14:08:55.000Z,1.93
2017-12-01T14:09:55.000Z,1.90
2017-12-01T14:10:55.000Z,1.90
2017-12-01T14:11:55.000Z,1.88
2017-12-01T14:12:55.000Z,1.86
2017-12-01T14:13:55.000Z,1.84
2017-12-01T14:14:55.000Z,1.81
2017-12-01T14:15:55.000Z,1.78
2017-12-01T14:16:55.000Z,1.78
2017-12-01T14:17:55.000Z,1.71
2017-12-01T14:18:55.000Z,1.68
2017-12-01T14:19:55.000Z,1.64
2017-12-01T14:20:55.000Z,1.58
2017-12-01T14:21:55.000Z,1.53
2017-12-01T14:22:55.000Z,1.49
2017-12-01T14:23:55.000Z,1.46
2017-12-01T14:24:55.000Z,1.40
2017-12-01T14:25:55.000Z,1.37
2017-12-01T14:26:55.000Z,1.35
2017-12-01T14:27:55.000Z,1.33
2017-12-01T14:28:56.000Z,1.32
2017-12-01T14:29:55.000Z,1.31
2017-12-01T14:30:55.000Z,1.27
2017-12-01T14:31:55.000Z,1.23
2017-12-01T14:32:55.000Z,1.16
2017-12-01T14:33:55.000Z,1.13
2017-12-01T14:34:55.000Z,1.14
2017-12-01T14:35:55.000Z,1.11
2017-12-01T14:36:55.000Z,1.13
2017-12-01T14:37:55.000Z,1.11
2017-12-01T14:38:55.000Z,1.08
2017-12-01T14:39:55.000Z,1.06
2017-12-01T14:40:55.000Z,1.06
2017-12-01T14:41:55.000Z,1.03
2017-12-01T14:42:55.000Z,1.01
2017-12-01T14:43:55.000Z,1.01
2017-12-01T14:44:55.000Z,1.00
2017-12-01T14:45:55.000Z,0.98
2017-12-01T14:46:55.000Z,0.95
2017-12-01T14:47:55.000Z,0.92
2017-12-01T14:48:55.000Z,0.92
2017-12-01T14:49:55.000Z,0.94
2017-12-01T14:50:55.000Z,0.93
2017-12-01T14:51:55.000Z,0.94
2017-12-01T14:52:55.000Z,0.96
2017-12-01T14:53:55.000Z,0.98
2017-12-01T14:54:55.000Z,1.01
2017-12-01T14:55:55.000Z,1.01
2017-12-01T14:56:55.000Z,1.03
2017-12-01T14:57:55.000Z,1.04
2017-12-01T14:58:55.000Z,1.06
2017-12-01T14:59:55.000Z,1.10
2017-12-01T15:00:55.000Z,1.08
2017-12-01T15:01:55.000Z,1.07
2017-12-01T15:02:56.000Z,1.07
2017-12-01T15:03:55.000Z,1.10
2017-12-01T15:04:55.000Z,1.11
2017-12-01T15:05:55.000Z,1.12
2017-12-01T15:06:55.000Z,1.12
2017-12-01T15:07:55.000Z,1.13
2017-12-01T15:08:55.000Z,1.11
2017-12-01T15:09:55.000Z,1.11
2017-12-01T15:10:55.000Z,1.12
2017-12-01T15:11:56.000Z,1.13
2017-12-01T15:12:55.000Z,1.14
2017-12-01T15:13:55.000Z,1.15
2017-12-01T15:14:55.000Z,1.15
2017-12-01T15:15:56.000Z,1.12
2017-12-01T15:16:55.000Z,1.09
2017-12-01T15:17:55.000Z,1.08
2017-12-01T15:18:55.000Z,1.05
2017-12-01T15:19:56.000Z,1.02
2017-12-01T15:20:55.000Z,0.98
2017-12-01T15:21:55.000Z,0.94
2017-12-01T15:22:55.000Z,0.89
2017-12-01T15:23:55.000Z,0.85
2017-12-01T15:24:55.000Z,0.83
2017-12-01T15:25:55.000Z,0.78
2017-12-01T15:26:55.000Z,0.74
2017-12-01T15:27:55.000Z,0.71
2017-12-01T15:28:55.000Z,0.70
2017-12-01T15:29:55.000Z,0.68
2017-12-01T15:30:56.000Z,0.66
2017-12-01T15:31:55.000Z,0.66
2017-12-01T15:32:55.000Z,0.63
2017-12-01T15:33:55.000Z,0.62
2017-12-01T15:34:55.000Z,0.62
2017-12-01T15:35:55.000Z,0.63
2017-12-01T15:36:55.000Z,0.65
2017-12-01T15:37:55.000Z,0.67
2017-12-01T15:38:55.000Z,0.71
2017-12-01T15:39:55.000Z,0.76
2017-12-01T15:40:55.000Z,0.77
2017-12-01T15:41:55.000Z,0.78
2017-12-01T15:42:55.000Z,0.77
2017-12-01T15:43:55.000Z,0.75
2017-12-01T15:44:55.000Z,0.75
2017-12-01T15:45:55.000Z,0.71
2017-12-01T15:46:55.000Z,0.69
2017-12-01T15:47:55.000Z,0.66
2017-12-01T15:48:55.000Z,0.61
2017-12-01T15:49:55.000Z,0.55
2017-12-01T15:50:56.000Z,0.49
2017-12-01T15:51:55.000Z,0.42
2017-12-01T15:52:55.000Z,0.36
2017-12-01T15:53:55.000Z,0.27
2017-12-01T15:54:55.000Z,0.24
2017-12-01T15:55:55.000Z,0.22
2017-12-01T15:56:55.000Z,0.18
2017-12-01T15:57:55.000Z,0.17
2017-12-01T15:58:55.000Z,0.17
2017-12-01T15:59:55.000Z,0.15
2017-12-01T16:00:55.000Z,0.14
2017-12-01T16:01:55.000Z,0.15
2017-12-01T16:02:55.000Z,0.14
2017-12-01T16:03:55.000Z,0.14
2017-12-01T16:04:55.000Z,0.17
2017-12-01T16:05:55.000Z,0.17
2017-12-01T16:06:56.000Z,0.18
2017-12-01T16:07:55.000Z,0.20
2017-12-01T16:08:56.000Z,0.24
2017-12-01T16:09:56.000Z,0.22
2017-12-01T16:10:56.000Z,0.23
2017-12-01T16:11:56.000Z,0.20
2017-12-01T16:12:56.000Z,0.22
2017-12-01T16:13:56.000Z,0.26
2017-12-01T16:14:56.000Z,0.29
2017-12-01T16:15:56.000Z,0.30
2017-12-01T16:16:56.000Z,0.33
2017-12-01T16:17:56.000Z,0.35
2017-12-01T16:18:56.000Z,0.38
2017-12-01T16:19:56.000Z,0.41
2017-12-01T16:20:56.000Z,0.43
2017-12-01T16:21:56.000Z,0.46
2017-12-01T16:22:56.000Z,0.47
2017-12-01T16:23:56.000Z,0.49
2017-12-01T16:24:56.000Z,0.53
2017-12-01T16:25:56.000Z,0.53
2017-12-01T16:26:56.000Z,0.55
2017-12-01T16:27:56.000Z,0.57
2017-12-01T16:28:56.000Z,0.58
2017-12-01T16:29:56.000Z,0.59
2017-12-01T16:30:56.000Z,0.61
2017-12-01T16:31:56.000Z,0.61
2017-12-01T16:32:56.000Z,0.62
2017-12-01T16:33:56.000Z,0.62
2017-12-01T16:34:56.000Z,0.64
2017-12-01T16:35:56.000Z,0.67
2017-12-01T16:36:56.000Z,0.70
2017-12-01T16:37:56.000Z,0.70
2017-12-01T16:38:56.000Z,0.73